Time;durP1;ratioP1;P1;durP2;ratioP2;P2;SDS_P1;SDS_P2;PMS_P1;PMS_P2;Temp;Humidity;BMP_temperature;BMP_pressure;BME280_temperature;BME280_humidity;BME280_pressure;Samples;Min_cycle;Max_cycle;Signal;HPM_P1;HPM_P2
2021/10/02 00:35:30;;;;;;;4.13;3.53;;;14.00;79.40;;;;;;5039454;28;20447;-43
2021/10/02 00:41:14;;;;;;;5.20;4.03;;;14.00;79.30;;;;;;5018392;28;20487;-43
2021/10/02 00:46:29;;;;;;;5.07;3.67;;;14.00;79.20;;;;;;5040514;28;20977;-43
2021/10/02 00:48:56;;;;;;;6.10;4.20;;;14.00;79.20;;;;;;5040119;28;20820;-43
2021/10/02 00:51:23;;;;;;;4.53;3.63;;;14.00;79.20;;;;;;5040497;28;20831;-43
2021/10/02 00:53:50;;;;;;;5.70;3.63;;;14.00;79.30;;;;;;5040642;28;20462;-43
2021/10/02 00:56:17;;;;;;;4.70;4.10;;;14.00;79.30;;;;;;5043598;28;20443;-43
2021/10/02 00:58:49;;;;;;;5.47;3.80;;;14.00;79.30;;;;;;5044672;28;20574;-43
2021/10/02 01:01:26;;;;;;;5.73;4.00;;;14.00;79.20;;;;;;5039792;28;20453;-43
2021/10/02 01:03:56;;;;;;;6.43;5.70;;;14.00;79.20;;;;;;5044471;28;20455;-43
2021/10/02 01:06:58;;;;;;;4.97;4.47;;;14.10;79.20;;;;;;5041821;28;20458;-43
2021/10/02 01:09:40;;;;;;;8.03;4.80;;;14.00;79.30;;;;;;5037968;28;20533;-43
2021/10/02 01:12:22;;;;;;;5.93;4.80;;;14.00;79.40;;;;;;5023771;28;20449;-43
2021/10/02 01:15:23;;;;;;;9.80;5.23;;;14.00;79.50;;;;;;5041164;28;20463;-44
2021/10/02 01:17:58;;;;;;;5.50;4.80;;;14.10;79.60;;;;;;5041519;28;20485;-44
2021/10/02 01:20:25;;;;;;;6.57;5.90;;;14.10;79.70;;;;;;5026867;28;20452;-44
2021/10/02 01:23:28;;;;;;;6.27;5.00;;;14.00;79.70;;;;;;5041191;28;20457;-44
2021/10/02 01:26:04;;;;;;;6.30;5.30;;;14.10;79.80;;;;;;5041205;28;20455;-44
2021/10/02 01:28:36;;;;;;;7.30;5.70;;;14.10;79.80;;;;;;5037671;28;20465;-44
2021/10/02 01:31:11;;;;;;;6.47;5.63;;;14.10;80.00;;;;;;5041780;28;20542;-44
2021/10/02 01:34:07;;;;;;;6.73;5.60;;;14.10;80.00;;;;;;5042785;28;20459;-43
2021/10/02 01:36:46;;;;;;;9.47;5.50;;;14.10;80.10;;;;;;5023496;28;20815;-43
2021/10/02 01:47:46;;;;;;;11.17;6.10;;;14.10;80.00;;;;;;5039644;28;20458;-43
2021/10/02 01:50:15;;;;;;;9.30;6.30;;;14.10;80.10;;;;;;5037623;28;20453;-43
2021/10/02 01:52:43;;;;;;;9.70;5.13;;;14.10;80.20;;;;;;5044914;28;20458;-44
2021/10/02 01:55:11;;;;;;;9.10;5.17;;;14.10;80.20;;;;;;5044155;28;20879;-43
2021/10/02 01:57:45;;;;;;;7.93;4.67;;;14.10;80.30;;;;;;5043865;28;20496;-43
2021/10/02 02:00:13;;;;;;;7.07;5.07;;;14.10;80.30;;;;;;5044873;28;20456;-43
2021/10/02 02:02:46;;;;;;;4.33;3.93;;;14.10;80.40;;;;;;5047574;28;20472;-43
2021/10/02 02:05:20;;;;;;;4.60;4.20;;;14.10;80.40;;;;;;5044515;28;20882;-43
2021/10/02 02:07:52;;;;;;;5.00;4.50;;;14.10;80.40;;;;;;5046902;28;20975;-43
2021/10/02 02:10:21;;;;;;;4.03;3.63;;;14.10;80.40;;;;;;5047235;28;20450;-43
2021/10/02 02:12:49;;;;;;;5.33;3.70;;;14.10;80.40;;;;;;5044188;28;20446;-43
2021/10/02 02:15:17;;;;;;;3.93;3.50;;;14.10;80.40;;;;;;5030350;28;20892;-43
2021/10/02 02:17:58;;;;;;;3.60;3.30;;;14.10;80.50;;;;;;5044010;28;20504;-43
2021/10/02 02:20:36;;;;;;;6.83;3.43;;;14.10;80.40;;;;;;5045541;28;20458;-43
2021/10/02 02:23:04;;;;;;;4.30;2.50;;;14.10;80.20;;;;;;5044310;28;20461;-43
2021/10/02 02:25:31;;;;;;;3.60;2.97;;;14.10;80.10;;;;;;5046560;28;20481;-43
2021/10/02 02:27:58;;;;;;;3.10;2.80;;;14.10;79.90;;;;;;5043223;28;20451;-43
2021/10/02 02:30:25;;;;;;;4.87;3.03;;;14.10;79.80;;;;;;5044479;28;20463;-43
2021/10/02 02:32:52;;;;;;;2.60;1.90;;;14.10;79.70;;;;;;5043061;28;20485;-43
2021/10/02 02:35:20;;;;;;;5.00;2.80;;;14.20;79.50;;;;;;5043485;28;20459;-43
2021/10/02 02:37:47;;;;;;;2.53;2.03;;;14.20;79.40;;;;;;5047094;28;22184;-42
2021/10/02 02:40:14;;;;;;;2.53;2.17;;;14.20;79.30;;;;;;5044235;28;20440;-42
2021/10/02 02:42:42;;;;;;;4.63;2.13;;;14.20;79.10;;;;;;5045878;28;20980;-42
2021/10/02 02:45:11;;;;;;;3.57;2.33;;;14.30;78.90;;;;;;5040629;28;20459;-42
2021/10/02 02:47:44;;;;;;;3.63;2.37;;;14.30;78.50;;;;;;5043232;28;20458;-41
2021/10/02 02:50:27;;;;;;;2.97;2.20;;;14.30;78.30;;;;;;5048493;28;20803;-41
2021/10/02 02:53:07;;;;;;;3.30;2.23;;;14.30;78.40;;;;;;5041772;28;20467;-42
2021/10/02 02:55:48;;;;;;;2.50;2.13;;;14.30;78.40;;;;;;5044447;28;20462;-41
2021/10/02 02:58:18;;;;;;;3.10;2.77;;;14.30;78.50;;;;;;5044434;28;20539;-42
2021/10/02 03:01:00;;;;;;;7.30;1.90;;;14.30;78.50;;;;;;5042011;28;20461;-42
2021/10/02 03:03:31;;;;;;;2.70;2.23;;;14.30;78.50;;;;;;5041184;28;20450;-42
2021/10/02 03:06:09;;;;;;;2.80;1.97;;;14.40;78.60;;;;;;5045639;28;20996;-42
2021/10/02 03:08:42;;;;;;;3.23;2.03;;;14.40;78.50;;;;;;5044592;28;20541;-41
2021/10/02 03:11:11;;;;;;;3.47;1.77;;;14.40;78.40;;;;;;5043970;28;20466;-42
2021/10/02 03:13:41;;;;;;;6.73;2.63;;;14.40;78.40;;;;;;5044286;28;21018;-42
2021/10/02 03:16:12;;;;;;;3.70;2.40;;;14.40;78.50;;;;;;5043070;28;20461;-42
2021/10/02 03:18:43;;;;;;;4.77;2.20;;;14.40;78.50;;;;;;5043530;28;20858;-42
2021/10/02 03:21:12;;;;;;;3.57;2.20;;;14.50;78.40;;;;;;5031891;28;20451;-42
2021/10/02 03:23:39;;;;;;;5.40;2.40;;;14.50;78.30;;;;;;5043948;28;20463;-42
2021/10/02 03:26:06;;;;;;;2.10;1.80;;;14.50;78.30;;;;;;5029006;28;20455;-42
2021/10/02 03:28:34;;;;;;;4.50;2.30;;;14.50;78.40;;;;;;5029228;28;20473;-42
2021/10/02 03:31:01;;;;;;;3.60;2.20;;;14.50;78.30;;;;;;5042194;28;20481;-42
2021/10/02 03:33:29;;;;;;;3.77;2.20;;;14.50;78.30;;;;;;5042520;28;20487;-42
2021/10/02 03:35:56;;;;;;;6.30;2.30;;;14.50;78.40;;;;;;5042988;28;20737;-42
2021/10/02 03:38:23;;;;;;;2.90;2.27;;;14.50;78.30;;;;;;5045030;28;20509;-41
2021/10/02 03:40:50;;;;;;;2.73;1.77;;;14.50;78.30;;;;;;5043631;28;20446;-41
2021/10/02 03:43:18;;;;;;;4.37;2.20;;;14.50;78.40;;;;;;5043849;28;20449;-42
2021/10/02 03:45:44;;;;;;;2.30;2.10;;;14.50;78.40;;;;;;5039667;28;20461;-42
2021/10/02 03:48:11;;;;;;;3.27;2.07;;;14.60;78.30;;;;;;5038999;28;20963;-42
2021/10/02 03:50:38;;;;;;;2.97;2.33;;;14.60;78.30;;;;;;5025573;28;20467;-41
2021/10/02 03:53:05;;;;;;;4.80;2.10;;;14.60;78.40;;;;;;5027672;28;20459;-41
2021/10/02 03:55:31;;;;;;;2.30;2.00;;;14.60;78.30;;;;;;5041313;28;20935;-42
2021/10/02 03:57:58;;;;;;;3.10;2.33;;;14.70;78.30;;;;;;5040912;28;20541;-42
2021/10/02 04:00:25;;;;;;;2.13;2.03;;;14.70;78.00;;;;;;5042108;28;20461;-42
2021/10/02 04:02:52;;;;;;;2.43;2.07;;;14.70;78.10;;;;;;5044764;28;20451;-42
2021/10/02 04:05:20;;;;;;;2.93;2.20;;;14.70;78.20;;;;;;5040163;28;20605;-42
2021/10/02 04:07:47;;;;;;;2.47;2.27;;;14.70;78.10;;;;;;5043447;28;20465;-42
2021/10/02 04:10:14;;;;;;;2.67;2.27;;;14.70;78.20;;;;;;5040395;28;20465;-42
2021/10/02 04:12:41;;;;;;;3.30;3.00;;;14.70;78.20;;;;;;5042577;28;20957;-42
2021/10/02 04:15:08;;;;;;;2.63;2.27;;;14.70;78.30;;;;;;5044494;28;20459;-42
2021/10/02 04:17:35;;;;;;;4.40;2.47;;;14.70;78.40;;;;;;5042662;28;20541;-42
2021/10/02 04:20:04;;;;;;;3.47;3.00;;;14.70;78.40;;;;;;5042552;28;21018;-42
2021/10/02 04:22:31;;;;;;;3.13;1.90;;;14.70;78.50;;;;;;5028891;28;20450;-42
2021/10/02 04:24:57;;;;;;;2.33;2.03;;;14.60;78.50;;;;;;5042322;28;20450;-42
2021/10/02 04:27:24;;;;;;;4.80;2.33;;;14.60;78.60;;;;;;5041458;28;20491;-42
2021/10/02 04:29:51;;;;;;;3.30;1.80;;;14.60;78.50;;;;;;5040034;28;20444;-42
2021/10/02 04:32:18;;;;;;;3.63;2.20;;;14.60;78.60;;;;;;5036768;28;20915;-42
2021/10/02 04:34:44;;;;;;;2.63;2.07;;;14.60;78.50;;;;;;5039477;28;20462;-42
2021/10/02 04:37:11;;;;;;;4.50;2.33;;;14.60;78.50;;;;;;5030929;28;20831;-42
2021/10/02 04:39:38;;;;;;;3.10;1.90;;;14.60;78.50;;;;;;5024211;28;20483;-42
2021/10/02 04:42:05;;;;;;;1.90;1.50;;;14.60;78.50;;;;;;5042296;28;20459;-42
2021/10/02 04:44:32;;;;;;;3.40;2.00;;;14.70;78.40;;;;;;5041144;28;20443;-42
2021/10/02 04:46:59;;;;;;;6.40;2.80;;;14.70;78.60;;;;;;5039520;28;20457;-42
2021/10/02 04:49:26;;;;;;;2.10;1.90;;;14.70;78.40;;;;;;5041313;28;20459;-42
2021/10/02 04:51:53;;;;;;;2.47;2.20;;;14.70;78.50;;;;;;5028024;28;20970;-42
2021/10/02 04:54:19;;;;;;;2.47;1.73;;;14.70;78.50;;;;;;5042837;28;20543;-42
2021/10/02 04:56:46;;;;;;;3.97;2.40;;;14.70;78.60;;;;;;5023521;28;20474;-42
2021/10/02 04:59:13;;;;;;;3.10;2.10;;;14.70;78.60;;;;;;5043850;28;21067;-42
2021/10/02 05:01:40;;;;;;;2.83;2.37;;;14.70;78.60;;;;;;5043505;28;20767;-42
2021/10/02 05:04:07;;;;;;;2.53;2.10;;;14.70;78.60;;;;;;5043062;28;20808;-42
2021/10/02 05:06:34;;;;;;;3.20;2.00;;;14.70;78.70;;;;;;5041747;28;20455;-42
2021/10/02 05:09:01;;;;;;;2.70;2.13;;;14.70;78.80;;;;;;5038307;28;20458;-42
2021/10/02 05:11:27;;;;;;;3.30;2.20;;;14.70;78.80;;;;;;5041707;28;20466;-42
2021/10/02 05:13:55;;;;;;;2.80;1.70;;;14.70;78.80;;;;;;5038949;28;20478;-42
2021/10/02 05:16:22;;;;;;;6.13;3.17;;;14.70;78.80;;;;;;5037134;28;21434;-42
2021/10/02 05:18:48;;;;;;;2.57;2.37;;;14.70;78.70;;;;;;5041296;28;20490;-42
2021/10/02 05:21:15;;;;;;;3.57;2.60;;;14.70;78.80;;;;;;5041136;28;20904;-42
2021/10/02 05:23:42;;;;;;;3.50;2.17;;;14.70;78.90;;;;;;5039463;28;20466;-42
2021/10/02 05:26:09;;;;;;;4.50;2.17;;;14.60;78.90;;;;;;5042046;28;20458;-42
2021/10/02 05:28:36;;;;;;;2.07;1.87;;;14.60;79.00;;;;;;5041738;28;20462;-41
2021/10/02 05:31:03;;;;;;;5.27;2.00;;;14.60;79.00;;;;;;5030429;28;20462;-42
2021/10/02 05:33:30;;;;;;;2.93;2.00;;;14.60;79.10;;;;;;5043944;28;20473;-42
2021/10/02 05:35:57;;;;;;;3.40;1.77;;;14.60;79.20;;;;;;5044101;28;20457;-42
2021/10/02 05:38:24;;;;;;;4.87;2.73;;;14.60;79.20;;;;;;5045765;28;20477;-41
2021/10/02 05:40:51;;;;;;;3.93;2.00;;;14.70;79.20;;;;;;5048065;28;20869;-41
2021/10/02 05:43:17;;;;;;;2.70;2.03;;;14.60;79.20;;;;;;5030259;28;20458;-41
2021/10/02 05:45:44;;;;;;;4.60;2.57;;;14.60;79.20;;;;;;5040933;28;20455;-41
2021/10/02 05:48:11;;;;;;;3.30;2.43;;;14.60;79.20;;;;;;5046044;28;20545;-41
2021/10/02 05:50:39;;;;;;;5.40;2.60;;;14.60;79.20;;;;;;5043100;28;20974;-42
2021/10/02 05:53:06;;;;;;;4.07;2.20;;;14.70;79.10;;;;;;5042566;28;20447;-41
2021/10/02 05:55:34;;;;;;;4.33;3.00;;;14.70;79.30;;;;;;5045035;28;20935;-41
2021/10/02 05:58:00;;;;;;;3.10;2.63;;;14.70;79.40;;;;;;5022356;28;20528;-41
2021/10/02 06:00:27;;;;;;;4.10;3.70;;;14.70;79.40;;;;;;5043877;28;20490;-41
2021/10/02 06:02:56;;;;;;;3.00;2.27;;;14.70;79.50;;;;;;5043348;28;20454;-41
2021/10/02 06:05:27;;;;;;;5.43;2.90;;;14.70;79.60;;;;;;5043919;28;20517;-41
2021/10/02 06:07:55;;;;;;;5.00;2.80;;;14.70;79.70;;;;;;5043302;28;20545;-41
2021/10/02 06:10:22;;;;;;;5.83;2.83;;;14.70;79.70;;;;;;5041088;28;20459;-41
2021/10/02 06:12:52;;;;;;;2.80;2.00;;;14.70;79.60;;;;;;5048033;28;20468;-42
2021/10/02 06:15:20;;;;;;;2.47;2.23;;;14.70;79.50;;;;;;5029549;28;20454;-41
2021/10/02 06:17:47;;;;;;;2.80;2.00;;;14.70;79.30;;;;;;5044636;28;20466;-41
2021/10/02 06:20:14;;;;;;;4.93;2.07;;;14.70;79.10;;;;;;5046637;28;20912;-41
2021/10/02 06:22:41;;;;;;;3.80;2.33;;;14.70;79.10;;;;;;5037481;28;20464;-41
2021/10/02 06:25:09;;;;;;;3.37;2.20;;;14.70;79.00;;;;;;5040497;28;20498;-41
2021/10/02 06:27:38;;;;;;;4.23;1.77;;;14.70;79.10;;;;;;5044400;28;20458;-41
2021/10/02 06:30:06;;;;;;;6.20;2.00;;;14.70;79.20;;;;;;5043287;28;20469;-41
2021/10/02 06:32:34;;;;;;;3.57;2.10;;;14.80;79.10;;;;;;5045415;28;20466;-41
2021/10/02 06:35:00;;;;;;;4.70;1.97;;;14.80;79.10;;;;;;5028285;28;20520;-41
2021/10/02 06:37:28;;;;;;;2.47;2.00;;;14.70;79.20;;;;;;5024366;28;20557;-41
2021/10/02 06:39:55;;;;;;;2.43;1.80;;;14.80;79.00;;;;;;5041649;28;20586;-41
2021/10/02 06:42:21;;;;;;;2.70;2.00;;;14.80;78.90;;;;;;5043497;28;20994;-41
2021/10/02 06:44:49;;;;;;;2.37;1.80;;;14.80;78.90;;;;;;5047252;28;20447;-41
2021/10/02 06:47:16;;;;;;;2.63;1.87;;;14.80;78.90;;;;;;5044361;28;20466;-41
2021/10/02 06:49:42;;;;;;;3.17;1.90;;;14.80;78.60;;;;;;5044107;28;20472;-41
2021/10/02 06:52:09;;;;;;;2.30;1.83;;;14.90;78.20;;;;;;5046351;28;20829;-41
2021/10/02 06:54:36;;;;;;;2.73;1.90;;;14.90;78.20;;;;;;5043490;28;20458;-41
2021/10/02 06:57:04;;;;;;;3.40;2.20;;;14.80;78.20;;;;;;5046051;28;20944;-41
2021/10/02 06:59:31;;;;;;;2.70;1.60;;;14.90;78.70;;;;;;5043940;28;20564;-41
2021/10/02 07:01:58;;;;;;;2.97;1.90;;;14.90;78.40;;;;;;5044021;28;20832;-41
2021/10/02 07:04:25;;;;;;;2.40;1.80;;;14.90;78.60;;;;;;5042937;28;20494;-41
2021/10/02 07:06:56;;;;;;;2.77;1.50;;;14.90;78.60;;;;;;5047004;28;20546;-41
2021/10/02 07:09:23;;;;;;;2.10;1.80;;;14.90;78.70;;;;;;5046033;28;20813;-41
2021/10/02 07:11:50;;;;;;;4.90;2.00;;;14.90;78.80;;;;;;5043755;28;20444;-41
2021/10/02 07:14:17;;;;;;;2.73;2.10;;;14.90;78.80;;;;;;5044283;28;20480;-41
2021/10/02 07:16:44;;;;;;;5.90;2.70;;;14.90;78.80;;;;;;5043394;28;20482;-41
2021/10/02 07:19:11;;;;;;;2.83;2.30;;;15.00;78.80;;;;;;5046049;28;20482;-41
2021/10/02 07:21:38;;;;;;;6.23;2.20;;;15.00;78.70;;;;;;5042170;28;20578;-41
2021/10/02 07:24:05;;;;;;;3.93;1.73;;;15.00;78.70;;;;;;5026350;28;20513;-41
2021/10/02 07:26:33;;;;;;;3.47;2.20;;;15.00;78.70;;;;;;5043588;28;20459;-41
2021/10/02 07:28:59;;;;;;;3.33;2.00;;;15.10;78.70;;;;;;5042554;28;20458;-42
2021/10/02 07:31:26;;;;;;;5.00;2.60;;;15.20;78.70;;;;;;5044995;28;20457;-42
2021/10/02 07:33:53;;;;;;;5.80;3.60;;;15.30;78.40;;;;;;5045242;28;20778;-42
2021/10/02 07:36:21;;;;;;;3.90;2.80;;;15.40;78.30;;;;;;5023634;28;20463;-42
2021/10/02 07:38:48;;;;;;;6.23;2.37;;;15.40;78.20;;;;;;5041617;28;20906;-42
2021/10/02 07:41:17;;;;;;;6.23;2.63;;;15.50;78.00;;;;;;5042920;28;20435;-42
2021/10/02 07:43:55;;;;;;;4.53;2.67;;;15.50;78.00;;;;;;5043664;28;20463;-42
2021/10/02 07:46:23;;;;;;;5.33;1.77;;;15.60;77.90;;;;;;5038516;28;20460;-42
2021/10/02 07:48:53;;;;;;;4.70;1.97;;;15.60;77.60;;;;;;5044088;28;20459;-42
2021/10/02 07:51:23;;;;;;;3.77;2.13;;;15.70;77.20;;;;;;5041436;28;20447;-42
2021/10/02 07:53:53;;;;;;;4.17;1.97;;;15.80;76.90;;;;;;5041569;28;20549;-42
2021/10/02 07:56:20;;;;;;;5.43;3.20;;;15.80;76.60;;;;;;5031486;28;20466;-42
2021/10/02 07:58:48;;;;;;;7.53;3.10;;;15.90;76.60;;;;;;5024561;28;20458;-42
2021/10/02 08:01:16;;;;;;;3.27;2.00;;;16.10;76.50;;;;;;5043004;28;20461;-42
2021/10/02 08:03:42;;;;;;;3.20;2.20;;;16.20;76.10;;;;;;5044848;28;20454;-42
2021/10/02 08:06:10;;;;;;;2.07;1.87;;;16.30;75.70;;;;;;5041502;28;20910;-42
2021/10/02 08:08:36;;;;;;;2.13;1.93;;;16.30;74.40;;;;;;5040387;28;20460;-42
2021/10/02 08:11:06;;;;;;;3.77;2.00;;;16.40;73.60;;;;;;5038360;28;20493;-41
2021/10/02 08:13:34;;;;;;;4.00;2.30;;;16.50;73.50;;;;;;5041991;28;20481;-42
2021/10/02 08:16:02;;;;;;;2.50;1.83;;;16.50;73.60;;;;;;5041221;28;20461;-42
2021/10/02 08:18:37;;;;;;;3.00;2.30;;;16.50;73.40;;;;;;5038981;28;20534;-41
2021/10/02 08:21:06;;;;;;;1.63;1.53;;;16.60;73.30;;;;;;5042677;28;20483;-42
2021/10/02 08:23:38;;;;;;;3.03;1.93;;;16.60;73.20;;;;;;5044740;28;20947;-42
2021/10/02 08:26:06;;;;;;;3.07;2.00;;;16.60;72.90;;;;;;5044621;28;20464;-42
2021/10/02 08:28:33;;;;;;;1.70;1.60;;;16.70;72.70;;;;;;5038539;28;20827;-42
2021/10/02 08:31:01;;;;;;;3.00;1.93;;;16.70;72.80;;;;;;5042734;28;20477;-42
2021/10/02 08:33:29;;;;;;;2.50;1.70;;;16.80;72.50;;;;;;5040857;28;20467;-42
2021/10/02 08:35:56;;;;;;;2.90;2.00;;;16.90;70.80;;;;;;5037359;28;20460;-42
2021/10/02 08:38:23;;;;;;;3.87;1.80;;;17.00;69.50;;;;;;5038925;28;20555;-42
2021/10/02 08:40:54;;;;;;;2.70;2.30;;;17.10;69.00;;;;;;5037704;28;20485;-42
2021/10/02 08:43:22;;;;;;;5.27;1.83;;;17.10;69.40;;;;;;5024482;28;20586;-42
2021/10/02 08:45:49;;;;;;;2.67;2.00;;;17.10;69.90;;;;;;5039781;28;20459;-43
2021/10/02 08:48:18;;;;;;;1.97;1.67;;;17.10;70.20;;;;;;5024746;28;20459;-42
2021/10/02 08:50:46;;;;;;;2.40;1.97;;;17.20;69.40;;;;;;5039848;28;20460;-43
2021/10/02 08:53:13;;;;;;;2.13;1.83;;;17.20;69.70;;;;;;5040848;28;20882;-42
2021/10/02 08:55:41;;;;;;;2.80;1.87;;;17.20;70.10;;;;;;5041631;28;21069;-42
2021/10/02 08:58:09;;;;;;;4.77;2.03;;;17.30;70.30;;;;;;5042098;28;20781;-42
2021/10/02 09:00:38;;;;;;;2.10;1.90;;;17.30;70.50;;;;;;5040635;28;20586;-42
2021/10/02 09:03:06;;;;;;;2.67;1.83;;;17.40;70.40;;;;;;5038444;28;20505;-42
2021/10/02 09:05:33;;;;;;;2.10;1.93;;;17.50;69.60;;;;;;5032939;28;20809;-43
2021/10/02 09:08:00;;;;;;;3.23;2.27;;;17.60;69.60;;;;;;5041135;28;20542;-42
2021/10/02 09:10:29;;;;;;;3.03;2.20;;;17.60;69.70;;;;;;5042523;28;20550;-42
2021/10/02 09:12:56;;;;;;;2.00;1.80;;;17.70;70.00;;;;;;5041625;28;20509;-43
2021/10/02 09:15:23;;;;;;;5.63;2.07;;;17.70;70.00;;;;;;5040794;28;20884;-42
2021/10/02 09:17:49;;;;;;;2.43;1.60;;;17.80;70.10;;;;;;5036315;28;20834;-42
2021/10/02 09:20:17;;;;;;;1.80;1.63;;;17.90;69.00;;;;;;5035104;28;20490;-42
2021/10/02 09:23:03;;;;;;;2.23;1.97;;;18.00;68.90;;;;;;5034839;28;20478;-42
2021/10/02 09:25:32;;;;;;;3.50;1.70;;;18.00;69.50;;;;;;5014104;28;20963;-43
2021/10/02 09:28:05;;;;;;;2.10;1.40;;;18.10;68.80;;;;;;5020901;28;20458;-42
2021/10/02 09:30:33;;;;;;;2.70;1.70;;;18.20;68.10;;;;;;5030393;28;20462;-42
2021/10/02 09:33:03;;;;;;;4.37;1.70;;;18.20;67.40;;;;;;5038725;28;20466;-42
2021/10/02 09:35:36;;;;;;;3.00;1.80;;;18.30;67.10;;;;;;5041512;28;20486;-42
2021/10/02 09:38:04;;;;;;;4.17;2.00;;;18.40;67.30;;;;;;5040414;28;20504;-42
2021/10/02 09:40:32;;;;;;;2.43;1.40;;;18.50;67.10;;;;;;5036112;28;21103;-42
2021/10/02 09:43:02;;;;;;;2.73;1.70;;;18.60;66.40;;;;;;5038234;28;20458;-42
2021/10/02 09:45:35;;;;;;;1.73;1.40;;;18.70;66.30;;;;;;5025159;28;20466;-42
2021/10/02 09:48:06;;;;;;;3.60;1.43;;;18.90;66.20;;;;;;5043951;28;20976;-42
2021/10/02 09:50:35;;;;;;;2.07;1.87;;;19.00;65.90;;;;;;5037847;28;20492;-42
2021/10/02 09:53:07;;;;;;;1.70;1.43;;;19.20;65.10;;;;;;5038305;28;20470;-42
2021/10/02 09:55:37;;;;;;;2.83;1.60;;;19.40;64.40;;;;;;5041365;28;20448;-42
2021/10/02 09:58:09;;;;;;;2.33;1.83;;;19.50;64.90;;;;;;5038566;28;20502;-42
2021/10/02 10:00:39;;;;;;;3.37;1.67;;;19.60;64.40;;;;;;5038876;28;20491;-42
2021/10/02 10:03:08;;;;;;;3.53;1.50;;;19.70;63.90;;;;;;5041611;28;20464;-42
2021/10/02 10:05:54;;;;;;;1.37;1.27;;;19.90;63.60;;;;;;5040810;28;20463;-42
2021/10/02 10:08:26;;;;;;;2.20;1.60;;;20.10;63.20;;;;;;5034220;28;20452;-42
2021/10/02 10:11:11;;;;;;;2.40;1.27;;;20.10;62.60;;;;;;5037638;28;20469;-42
2021/10/02 10:13:38;;;;;;;1.90;1.17;;;20.10;62.80;;;;;;5038972;28;20486;-42
2021/10/02 10:16:07;;;;;;;2.13;1.30;;;20.10;63.50;;;;;;5029017;28;20585;-42
2021/10/02 10:18:36;;;;;;;1.43;1.33;;;20.10;63.20;;;;;;5045082;28;20469;-42
2021/10/02 10:21:10;;;;;;;3.77;2.37;;;20.00;62.80;;;;;;5040459;28;20474;-42
2021/10/02 10:23:42;;;;;;;2.10;1.80;;;20.00;62.30;;;;;;5044589;28;20465;-42
2021/10/02 10:26:12;;;;;;;3.43;1.90;;;19.80;63.10;;;;;;5042227;28;20463;-42
2021/10/02 10:28:41;;;;;;;2.70;1.97;;;19.70;63.80;;;;;;5033515;28;21026;-42
2021/10/02 10:31:16;;;;;;;2.43;1.60;;;19.70;64.20;;;;;;5024212;28;20502;-42
2021/10/02 10:33:47;;;;;;;3.50;1.57;;;19.70;64.50;;;;;;5042475;28;21037;-42
2021/10/02 10:36:15;;;;;;;4.60;3.43;;;19.60;64.00;;;;;;5043572;28;20468;-42
2021/10/02 10:38:44;;;;;;;2.10;1.40;;;19.60;64.20;;;;;;5030197;28;20907;-42
2021/10/02 10:41:14;;;;;;;2.03;1.30;;;19.60;64.20;;;;;;5044379;28;20913;-42
2021/10/02 10:43:41;;;;;;;2.27;1.53;;;19.50;64.60;;;;;;5044084;28;20550;-42
2021/10/02 10:46:11;;;;;;;1.50;1.40;;;19.50;64.90;;;;;;5043817;28;20451;-42
2021/10/02 10:48:38;;;;;;;2.00;1.27;;;19.50;64.60;;;;;;5039851;28;20462;-42
2021/10/02 10:51:09;;;;;;;2.60;1.90;;;19.60;64.40;;;;;;5042571;28;20447;-42
2021/10/02 10:53:41;;;;;;;4.10;2.00;;;19.60;63.90;;;;;;5043906;28;20459;-42
2021/10/02 10:56:11;;;;;;;1.83;1.70;;;19.50;64.20;;;;;;5042292;28;20453;-42
2021/10/02 10:58:38;;;;;;;2.30;1.50;;;19.50;64.40;;;;;;5043656;28;20470;-42
2021/10/02 11:01:09;;;;;;;4.07;1.57;;;19.60;64.70;;;;;;5042496;28;20584;-42
2021/10/02 11:03:46;;;;;;;2.70;1.40;;;19.60;64.20;;;;;;5042369;28;21015;-42
2021/10/02 11:06:13;;;;;;;3.00;1.70;;;19.70;64.10;;;;;;5025117;28;20456;-41
2021/10/02 11:09:00;;;;;;;1.90;1.77;;;19.60;64.10;;;;;;5046353;28;20489;-41
2021/10/02 11:11:49;;;;;;;3.10;1.67;;;19.60;64.40;;;;;;5044934;28;20463;-42
2021/10/02 11:14:19;;;;;;;1.43;1.30;;;19.70;65.10;;;;;;5018846;28;20466;-43
2021/10/02 11:16:58;;;;;;;1.57;1.40;;;19.70;63.90;;;;;;5039413;28;20480;-43
2021/10/02 11:19:37;;;;;;;2.20;1.50;;;19.70;64.10;;;;;;5041820;28;20451;-43
2021/10/02 11:22:30;;;;;;;6.63;2.13;;;19.70;64.10;;;;;;5040457;28;20490;-43
2021/10/02 11:24:58;;;;;;;1.50;1.40;;;19.70;63.80;;;;;;5032456;28;20451;-43
2021/10/02 11:27:26;;;;;;;1.97;1.43;;;19.70;63.60;;;;;;5023891;28;20465;-42
2021/10/02 11:29:53;;;;;;;2.33;2.13;;;19.70;63.90;;;;;;5046837;28;20438;-42
2021/10/02 11:32:22;;;;;;;2.60;2.10;;;19.70;63.80;;;;;;5040847;28;20475;-42
2021/10/02 11:35:07;;;;;;;3.73;1.80;;;19.80;63.40;;;;;;5039760;28;20457;-42
2021/10/02 11:38:04;;;;;;;2.83;1.90;;;19.80;63.00;;;;;;5023248;28;20454;-42
2021/10/02 11:40:39;;;;;;;2.73;1.70;;;19.90;63.10;;;;;;5041021;28;20490;-42
2021/10/02 11:43:12;;;;;;;3.80;2.10;;;19.90;63.40;;;;;;5040968;28;20455;-42
2021/10/02 11:45:58;;;;;;;2.30;1.70;;;19.90;63.50;;;;;;5042895;28;20956;-42
2021/10/02 11:48:37;;;;;;;2.43;1.50;;;19.90;63.10;;;;;;5029200;28;20454;-42
2021/10/02 11:51:23;;;;;;;1.63;1.53;;;19.90;63.10;;;;;;5039976;28;20466;-42
2021/10/02 11:53:51;;;;;;;4.17;1.77;;;20.00;63.30;;;;;;5042470;28;20466;-42
2021/10/02 11:56:29;;;;;;;5.10;2.00;;;20.10;62.90;;;;;;5039053;28;20480;-42
2021/10/02 11:58:58;;;;;;;2.43;1.77;;;20.10;61.60;;;;;;5039261;28;20447;-41
2021/10/02 12:01:31;;;;;;;2.80;1.70;;;20.10;61.70;;;;;;5043426;28;20495;-41
2021/10/02 12:04:04;;;;;;;2.00;1.83;;;20.20;61.30;;;;;;5043636;28;20509;-41
2021/10/02 12:06:33;;;;;;;2.83;2.20;;;20.20;61.40;;;;;;5042793;28;20447;-41
2021/10/02 12:09:00;;;;;;;6.23;2.00;;;20.20;61.20;;;;;;5042905;28;20451;-41
2021/10/02 12:11:28;;;;;;;2.03;1.80;;;20.20;61.30;;;;;;5044517;28;20820;-42
2021/10/02 12:13:56;;;;;;;6.77;2.27;;;20.20;61.60;;;;;;5040921;28;20999;-42
2021/10/02 12:16:26;;;;;;;2.50;2.30;;;20.20;61.30;;;;;;5041733;28;20482;-41
2021/10/02 12:18:56;;;;;;;2.30;1.77;;;20.10;61.00;;;;;;5041927;28;20451;-41
2021/10/02 12:21:22;;;;;;;2.50;2.30;;;20.20;61.10;;;;;;5042631;28;20492;-42
2021/10/02 12:23:57;;;;;;;1.90;1.60;;;20.20;60.80;;;;;;5043778;28;20826;-42
2021/10/02 12:26:25;;;;;;;2.73;1.83;;;20.20;60.90;;;;;;5039937;28;20456;-41
2021/10/02 12:29:03;;;;;;;4.30;1.67;;;20.20;60.40;;;;;;5041607;28;20471;-42
2021/10/02 12:31:51;;;;;;;1.90;1.30;;;20.20;59.90;;;;;;5043636;28;20450;-41
2021/10/02 12:34:35;;;;;;;1.50;1.40;;;20.30;59.80;;;;;;5042320;28;20460;-41
2021/10/02 12:37:04;;;;;;;1.10;1.00;;;20.30;59.80;;;;;;5039906;28;20455;-41
2021/10/02 12:39:35;;;;;;;1.90;1.30;;;20.30;59.60;;;;;;5027624;28;20575;-41
2021/10/02 12:42:03;;;;;;;1.20;1.10;;;20.30;59.40;;;;;;5043532;28;20505;-41
2021/10/02 12:44:33;;;;;;;2.63;1.13;;;20.30;60.20;;;;;;5044005;28;20458;-42
2021/10/02 12:47:03;;;;;;;1.50;1.20;;;20.50;59.60;;;;;;5041792;28;20469;-42
2021/10/02 12:49:33;;;;;;;1.80;1.13;;;20.50;59.30;;;;;;5041002;28;21496;-42
2021/10/02 12:52:02;;;;;;;3.33;1.50;;;20.50;59.30;;;;;;5041470;28;20459;-42
2021/10/02 12:54:29;;;;;;;1.90;1.37;;;20.50;58.80;;;;;;5040517;28;20828;-42
2021/10/02 12:57:13;;;;;;;2.77;1.20;;;20.50;59.10;;;;;;5038915;28;20554;-42
2021/10/02 12:59:46;;;;;;;1.97;1.80;;;20.50;59.80;;;;;;5026963;28;21018;-41
2021/10/02 13:02:15;;;;;;;1.80;1.43;;;20.50;59.80;;;;;;5037347;28;20501;-41
2021/10/02 13:04:43;;;;;;;2.13;1.60;;;20.60;59.40;;;;;;5025355;28;20455;-42
2021/10/02 13:07:20;;;;;;;2.10;1.70;;;20.60;58.70;;;;;;5041287;28;20746;-41
2021/10/02 13:09:58;;;;;;;2.23;1.30;;;20.60;58.30;;;;;;5039922;28;20438;-41
2021/10/02 13:12:58;;;;;;;1.90;1.47;;;20.60;58.70;;;;;;5043178;28;20487;-41
2021/10/02 13:15:38;;;;;;;2.20;1.77;;;20.60;58.00;;;;;;5042354;28;20627;-42
2021/10/02 13:18:07;;;;;;;2.27;2.03;;;20.60;58.00;;;;;;5041428;28;20811;-41
2021/10/02 13:20:59;;;;;;;2.10;1.80;;;20.60;57.60;;;;;;5043062;28;20565;-42
2021/10/02 13:23:32;;;;;;;2.40;2.10;;;20.50;57.90;;;;;;5033604;28;20846;-42
2021/10/02 13:26:11;;;;;;;5.23;2.40;;;20.40;58.20;;;;;;5041453;28;20677;-41
2021/10/02 13:28:43;;;;;;;2.70;2.07;;;20.40;58.40;;;;;;5041611;28;20462;-41
2021/10/02 13:31:14;;;;;;;2.20;1.70;;;20.50;58.60;;;;;;5042832;28;20469;-42
2021/10/02 13:33:47;;;;;;;2.60;1.50;;;20.50;58.60;;;;;;5037714;28;20835;-41
2021/10/02 13:36:30;;;;;;;3.00;1.80;;;20.50;58.40;;;;;;5011609;28;20455;-41
2021/10/02 13:39:15;;;;;;;3.30;1.70;;;20.50;58.10;;;;;;5037085;28;20840;-41
2021/10/02 13:41:46;;;;;;;1.63;1.53;;;20.50;58.20;;;;;;5040336;28;20491;-41
2021/10/02 13:44:24;;;;;;;1.53;1.33;;;20.50;57.80;;;;;;5025746;28;20458;-41
2021/10/02 13:46:52;;;;;;;1.30;1.20;;;20.50;58.20;;;;;;5037924;28;20955;-41
2021/10/02 13:49:19;;;;;;;1.67;1.30;;;20.50;58.20;;;;;;5042359;28;20814;-41
2021/10/02 13:51:46;;;;;;;2.50;1.70;;;20.60;58.40;;;;;;5028325;28;20446;-41
2021/10/02 13:54:12;;;;;;;1.67;1.40;;;20.60;58.20;;;;;;5029721;28;20461;-41